the time You need

,

KS Athlete (ITA)

Nazionalitá:   IT   IT

Sesso:   --

Pettorale:   --

Categoria:   --

Società:   --

POS. ASSOLUTA

°

Gara

Granfondo San Benedetto del Tronto

Percorso

100.0 Km - CORTO

Atleti arrivati

238

DETTAGLIO PRESTAZIONE

POSIZIONE ASSOLUTA °
TEMPO TOTALE
MEDIA Km/h
CATEGORIA
POSIZIONE CATEGORIA °

Intermedi

PRESTAZIONE A CONFRONTO
ASSOLUTO

NOME Alessandro D“andrea
° POSIZIONE ASSOLUTA
TEMPO ASSOLUTO 02:46:07.70
Km/h MEDIA PRIMO ASSOLUTO 36,12 Km/h

PRESTAZIONE A CONFRONTO
CATEGORIA

NOME Alessandro D“andrea
° POSIZIONE CATEGORIA
TEMPO PRIMO DI CATEGORIA 02:46:07.70
Km/h MEDIA PRIMO CATEGORIA 36,12 Km/h


 
Grafico Edizioni Precedenti
Risulta una sola edizione, grafico non disponibile.
 
Pos Anno Cat PosCat Sex PosSex Tempo Media RealTime
 

 
Team
Pos Atleta Cat PosCat Tempo Media RealTime
D“ANDREA ALESSANDRO M1 1 02:46:07.70 36,12 02:45:44.20
FAZZINI GIULIO ES 1 02:46:11.30 36,10 02:45:49.40
PANICHI MARIO MARIANO M4 1 02:47:13.00 35,88 02:47:07.80
PIEROTTI OMAR M2 1 02:47:13.20 35,88 02:46:01.10
SENESI SANDRO M2 2 02:47:14.70 35,88 02:46:32.00
PIERSIMONI CLAUDIO M1 2 02:47:15.30 35,87 02:46:55.20
BIANCHI GREGORY M1 3 02:47:18.40 35,86 02:47:11.10
POETA EMANUELE ES 2 02:47:18.50 35,86 02:47:08.00
MASSARUCCI ERNELIO M4 2 02:47:20.70 35,86 02:46:13.10
10° CAPORALETTI MAURIZIO M3 1 02:47:21.50 35,85 02:46:59.50
11° BATTISTELLI EMANUELE M4 3 02:47:21.80 35,85 02:46:52.80
12° BALDELLI GIUSEPPE M3 2 02:48:14.70 35,66 02:47:20.40
13° FRIGATTI STEFANO M1 4 02:50:06.90 35,27 02:49:50.80
14° CALCINARI MORENO M3 3 02:50:07.40 35,27 02:49:47.00
15° MONTI FABIO ES 3 02:50:07.70 35,27 02:49:47.20
16° DI VITA GIORDANO M1 5 02:50:08.00 35,27 02:50:05.50
17° CLEMENTONI GABRIELE M3 4 02:50:08.10 35,27 02:49:31.20
18° CECERA GIANFRANCESCO M3 5 02:50:08.30 35,27 02:50:01.20
19° BALDUCCI DANIELE M2 3 02:50:08.50 35,27 02:49:33.10
20° CARLETTI STEFANO M2 4 02:50:08.60 35,27 02:50:04.60
21° PICCHIONI FAUSTO M2 5 02:50:09.20 35,26 02:49:04.60
22° MORBIDONI DANIELE M3 6 02:50:09.40 35,26 02:49:19.40
23° MESCHINI MIRKO M1 6 02:50:09.50 35,26 02:49:58.30
24° SEBASTIANI FABRIZIO M2 6 02:50:09.70 35,26 02:49:37.10
25° BEVILACQUA LUCA M2 7 02:50:09.90 35,26 02:50:09.90
26° MIGLIOLI FILIPPO M3 7 02:50:10.30 35,26 02:50:01.50
27° MEDORI LUIGINO M4 4 02:50:10.50 35,26 02:49:55.10
28° ASTOLFI CLAUDIO M3 8 02:50:11.60 35,26 02:49:29.20
29° BALDONI ROBERTO M2 8 02:50:20.60 35,23 02:50:01.20
30° CERVELLINI DANIELE M3 9 02:50:21.10 35,22 02:49:51.10
31° BARTOCCI MAURO M4 5 02:50:21.70 35,22 02:49:38.50
32° SPECIALE DAVIDE M3 10 02:50:21.80 35,22 02:50:12.10
33° BARBONI LUCA M2 9 02:50:22.40 35,22 02:50:14.30
34° SPALLETTI DANIELE M3 11 02:50:22.55 35,22 02:49:50.15
35° GOMES JUAN ES 4 02:50:22.80 35,22 02:49:10.00
36° IACOBONI DANIELE M3 12 02:50:23.40 35,21 02:50:11.40
37° GIORGI BRUNO M4 6 02:50:24.00 35,21 02:49:49.70
38° FILIPPI FEDERICO M4 7 02:50:25.20 35,21 02:49:19.50
39° GENOVESI MARIO M2 10 02:50:25.60 35,21 02:49:19.30
40° GIORGI GIORGIO M2 11 02:50:25.80 35,21 02:50:25.80
41° LANDI ALESSANDRO M2 12 02:50:26.00 35,20 02:49:18.90
42° RIVAROLI GIANCARLO M6 1 02:50:26.20 35,20 02:50:21.20
43° TARSI GABRIELE M1 7 02:50:26.30 35,20 02:50:17.60
44° PIERVISANI PAOLO M1 8 02:50:26.40 35,20 02:49:15.50
45° CALANDRINI SIMONE ES 5 02:50:26.60 35,20 02:49:40.00
46° LANCIOTTI ROBERTO ES 6 02:50:26.80 35,20 02:50:26.80
47° BLASI LUIGI M3 13 02:50:27.00 35,20 02:49:48.00
48° LANCIOTTI MAURO M1 9 02:50:28.00 35,20 02:50:22.80
49° FIORETTI MIRKO ES 7 02:53:40.70 34,55 02:52:57.00
50° PRIORI TRENTINO M4 8 02:59:14.00 33,48 02:58:38.90
51° PIERANGELINI SIMONE M2 13 02:59:35.00 33,41 02:58:32.70
52° ROSINI GIUSEPPE M4 9 02:59:37.10 33,40 02:58:37.50
53° MICHELINI FABRIZIO M2 14 02:59:37.60 33,40 02:59:05.30
54° GABARRINI LEONARDO ES 8 02:59:37.80 33,40 02:59:33.50
55° BINCI MARCELLO M5 1 02:59:37.90 33,40 02:58:20.40
56° BERNACCHIA DIEGO M1 10 02:59:37.95 33,40 02:59:17.35
57° PECCI ROSARIO M5 2 02:59:38.00 33,40 02:58:57.50
58° BATTISTELLI CARLO M5 3 02:59:38.20 33,40 02:59:25.10
59° GIOACCHINI RICCARDO M2 15 02:59:38.40 33,40 02:59:22.20
60° CIANNAVEI STEFANO ES 9 02:59:38.55 33,40 02:59:04.25
61° MINGRONI PIETROPAOLO M6 2 02:59:38.60 33,40 02:59:35.40
62° MARSAN MAURO M4 10 02:59:38.75 33,40 02:58:57.15
63° SCHIAROLI ALESSANDRO M2 16 02:59:38.80 33,40 02:58:58.40
64° RABINELLI RICCARDO M3 14 02:59:38.90 33,40 02:59:13.80
65° ANGELINI MATTEO M2 17 02:59:39.00 33,40 02:58:59.90
66° ISIDORI ENZO M7 1 02:59:39.10 33,40 02:59:17.10
67° IACOMUCCI VALTER M5 4 02:59:39.40 33,40 02:59:12.30
68° MADDES ALESSIO MARIA ES 10 02:59:39.60 33,40 02:58:42.30
69° LUCONI ROBERTO M4 11 02:59:39.85 33,40 02:59:00.05
70° SCIARRONI DANILO M1 11 02:59:39.90 33,40 02:59:15.70
71° SCIARRA ALFREDO M3 15 02:59:40.10 33,40 02:59:35.70
72° MENGHINI DAVIDE M2 18 02:59:40.20 33,40 02:59:10.60
73° LUCESOLI MATTEO M1 12 02:59:40.40 33,40 02:59:08.40
74° VERTICELLI FABRIZIO M5 5 02:59:40.70 33,40 02:58:49.40
75° LUCIANI MARIO M7 2 02:59:40.80 33,40 02:59:29.60
76° AGOSTINELLI STEFANO M3 16 02:59:41.70 33,39 02:59:31.70
77° GAMBADORI STEFANO M3 17 02:59:42.00 33,39 02:58:35.30
78° DI PAOLO BRUNO M3 18 02:59:42.20 33,39 02:58:22.10
79° MOZZONI SERGIO M2 19 02:59:43.90 33,39 02:59:08.10
80° CASTELLUCCI ROCCO M3 19 02:59:45.10 33,38 02:59:03.30
81° RUGGERI GIANLUCA M3 20 02:59:47.20 33,37 02:59:06.50
82° DILETTI ALESSANDRO M2 20 02:59:56.90 33,35 02:59:17.80
83° PIERSANTI EUGENIO M2 21 03:01:50.20 33,00 03:01:07.10
84° MENCUCCI CRISTIAN M2 22 03:06:12.80 32,22 03:05:31.50
85° POMPEI GABRIELE M5 6 03:06:13.10 32,22 03:05:18.40
86° DI GIACINTO FRANCO M7 3 03:06:15.30 32,21 03:06:14.10
87° DI PANFILO REMO M6 3 03:06:15.60 32,21 03:05:26.20
88° FAEDI FIORENZO M2 23 03:06:41.10 32,14 03:06:32.10
89° CORSALINI FRANCESCO M1 13 03:06:41.80 32,14 03:05:34.10
90° CAICONTI MAURIZIO M4 12 03:06:42.50 32,14 03:06:34.00
91° SILVESTRI PIETRO M4 13 03:06:42.70 32,14 03:05:24.10
92° DESSI GIANLUCA M2 24 03:06:42.80 32,14 03:06:31.80
93° GUALANO MATTEO M2 25 03:06:43.20 32,13 03:05:48.10
94° NASPI LUCIO M5 7 03:06:43.40 32,13 03:06:14.40
95° DE SANTIS FABIO M3 21 03:06:43.90 32,13 03:05:37.50
96° NADDEO GIOVANNI M2 26 03:06:44.30 32,13 03:06:13.50
97° CORINALDESI GIORGIO M4 14 03:06:44.50 32,13 03:06:03.40
98° CRINO“ ALESSANDRO M2 27 03:06:44.75 32,13 03:06:02.05
99° ROSINI LUIGI M3 22 03:06:44.80 32,13 03:05:35.60
100° CHECHI JURY M3 23 03:06:45.10 32,13 03:06:45.10
 

ELENCO GARE VISUALIZZAZIONE ESTESA

Data
Evento
Posizione
Punti
Km
Sport